createdAt,value
2019-04-30T00:01:16.868Z,44.13
2019-04-30T00:03:50.505Z,43.89
2019-04-30T00:06:27.336Z,43.98
2019-04-30T00:08:57.624Z,44.13
2019-04-30T00:11:29.403Z,43.98
2019-04-30T00:14:01.064Z,43.94
2019-04-30T00:16:36.332Z,44.10
2019-04-30T00:19:10.374Z,44.32
2019-04-30T00:21:40.307Z,44.14
2019-04-30T00:24:12.401Z,44.11
2019-04-30T00:26:50.019Z,43.79
2019-04-30T00:29:26.462Z,43.77
2019-04-30T00:31:51.306Z,44.15
2019-04-30T00:34:24.893Z,43.60
2019-04-30T00:36:56.808Z,43.59
2019-04-30T00:39:28.772Z,44.06
2019-04-30T00:41:59.576Z,43.53
2019-04-30T00:44:31.355Z,43.89
2019-04-30T00:47:04.944Z,43.89
2019-04-30T00:49:37.047Z,43.95
2019-04-30T00:52:08.786Z,43.70
2019-04-30T00:54:43.091Z,43.98
2019-04-30T00:57:15.357Z,43.66
2019-04-30T00:59:48.071Z,43.66
2019-04-30T01:02:31.882Z,43.66
2019-04-30T01:05:05.173Z,43.86
2019-04-30T01:07:35.441Z,43.78
2019-04-30T01:10:08.064Z,43.16
2019-04-30T01:12:46.843Z,43.79
2019-04-30T01:15:14.598Z,43.60
2019-04-30T01:17:51.044Z,43.15
2019-04-30T01:20:24.045Z,43.81
2019-04-30T01:22:54.324Z,43.33
2019-04-30T01:25:26.305Z,43.73
2019-04-30T01:27:59.298Z,43.52
2019-04-30T01:30:30.883Z,44.07
2019-04-30T01:33:02.755Z,44.14
2019-04-30T01:35:34.486Z,44.00
2019-04-30T01:38:09.116Z,43.61
2019-04-30T01:40:42.757Z,42.71
2019-04-30T01:43:13.377Z,43.72
2019-04-30T01:45:45.743Z,43.72
2019-04-30T01:48:16.543Z,43.95
2019-04-30T01:50:48.884Z,43.65
2019-04-30T01:53:20.737Z,43.65
2019-04-30T01:56:25.636Z,43.44
2019-04-30T01:59:00.306Z,43.48
2019-04-30T02:01:32.727Z,43.48
2019-04-30T02:04:03.489Z,43.43
2019-04-30T02:06:35.269Z,43.42
2019-04-30T02:09:09.885Z,43.58
2019-04-30T02:11:41.382Z,43.46
2019-04-30T02:14:13.072Z,43.46
2019-04-30T02:16:44.776Z,43.04
2019-04-30T02:19:16.406Z,43.40
2019-04-30T02:21:48.659Z,43.60
2019-04-30T02:24:20.784Z,43.07
2019-04-30T02:26:51.546Z,43.37
2019-04-30T02:29:23.307Z,43.40
2019-04-30T02:31:55.309Z,43.40
2019-04-30T02:34:34.602Z,43.60
2019-04-30T02:37:14.303Z,42.91
2019-04-30T02:39:46.292Z,42.91
2019-04-30T02:42:20.080Z,43.39
2019-04-30T02:44:51.708Z,43.69
2019-04-30T02:47:23.047Z,43.67
2019-04-30T02:50:11.637Z,42.64
2019-04-30T02:52:29.539Z,43.78
2019-04-30T02:55:01.369Z,42.44
2019-04-30T02:57:33.302Z,42.44
2019-04-30T03:00:20.607Z,43.43
2019-04-30T03:02:51.493Z,43.46
2019-04-30T03:05:23.301Z,43.84
2019-04-30T03:07:55.116Z,43.57
2019-04-30T03:10:26.781Z,42.88
2019-04-30T03:12:59.752Z,43.43
2019-04-30T03:15:30.791Z,43.39
2019-04-30T03:18:26.262Z,42.67
2019-04-30T03:21:09.600Z,43.29
2019-04-30T03:23:40.760Z,43.67
2019-04-30T03:26:13.031Z,42.90
2019-04-30T03:28:44.882Z,43.58
2019-04-30T03:31:16.776Z,42.49
2019-04-30T03:33:52.470Z,42.89
2019-04-30T03:36:22.127Z,42.43
2019-04-30T03:38:54.339Z,43.04
2019-04-30T03:41:26.064Z,43.37
2019-04-30T03:44:16.085Z,43.68
2019-04-30T03:46:31.737Z,43.81
2019-04-30T03:49:02.541Z,43.81
2019-04-30T03:51:34.413Z,43.16
2019-04-30T03:54:06.426Z,43.16
2019-04-30T03:56:39.643Z,43.17
2019-04-30T03:59:11.760Z,43.39
2019-04-30T04:01:52.263Z,42.68
2019-04-30T04:04:44.462Z,43.07
2019-04-30T04:07:23.655Z,42.81
2019-04-30T04:10:02.441Z,43.43
2019-04-30T04:12:34.407Z,43.38
2019-04-30T04:15:06.223Z,43.29
2019-04-30T04:17:39.736Z,42.69
2019-04-30T04:20:11.373Z,42.82
2019-04-30T04:22:43.291Z,42.78
2019-04-30T04:25:15.029Z,43.22
2019-04-30T04:30:30.197Z,43.09
2019-04-30T04:33:02.890Z,42.88
2019-04-30T04:35:35.095Z,43.16
2019-04-30T04:38:12.297Z,42.10
2019-04-30T04:40:41.845Z,42.39
2019-04-30T04:43:14.369Z,42.39
2019-04-30T04:45:49.727Z,42.89
2019-04-30T04:48:23.250Z,42.59
2019-04-30T04:50:55.325Z,43.16
2019-04-30T04:53:30.163Z,43.13
2019-04-30T04:56:01.796Z,42.83
2019-04-30T04:58:33.888Z,42.79
2019-04-30T05:01:06.326Z,42.14
2019-04-30T05:03:40.307Z,42.89
2019-04-30T05:06:15.996Z,43.13
2019-04-30T05:08:49.323Z,42.90
2019-04-30T05:11:21.985Z,42.35
2019-04-30T05:13:54.857Z,42.88
2019-04-30T05:16:28.853Z,42.64
2019-04-30T05:19:01.326Z,42.82
2019-04-30T05:21:41.993Z,42.72
2019-04-30T05:24:09.037Z,41.98
2019-04-30T05:26:41.866Z,41.98
2019-04-30T05:29:13.947Z,41.87
2019-04-30T05:31:46.055Z,42.08
2019-04-30T05:34:18.999Z,42.25
2019-04-30T05:36:51.598Z,42.31
2019-04-30T05:39:24.317Z,41.86
2019-04-30T05:41:58.829Z,41.86
2019-04-30T05:44:31.323Z,41.85
2019-04-30T05:47:03.840Z,41.85
2019-04-30T05:49:36.419Z,42.15
2019-04-30T05:52:09.455Z,41.63
2019-04-30T05:54:41.741Z,41.70
2019-04-30T05:57:12.762Z,41.79
2019-04-30T05:59:43.687Z,41.67
2019-04-30T06:02:15.278Z,42.05
2019-04-30T06:04:50.011Z,41.51
2019-04-30T06:07:22.843Z,41.16
2019-04-30T06:10:00.986Z,40.31
2019-04-30T06:13:00.891Z,41.09
2019-04-30T06:15:43.489Z,40.91
2019-04-30T06:18:15.857Z,40.95
2019-04-30T06:20:48.588Z,41.35
2019-04-30T06:23:19.957Z,41.20
2019-04-30T06:26:06.751Z,41.30
2019-04-30T06:28:31.341Z,40.64
2019-04-30T06:31:03.860Z,41.21
2019-04-30T06:33:36.325Z,40.97
2019-04-30T06:36:11.046Z,40.63
2019-04-30T06:38:42.827Z,40.57
2019-04-30T06:41:15.314Z,40.57
2019-04-30T06:43:48.800Z,40.46
2019-04-30T06:46:21.090Z,40.29
2019-04-30T06:48:53.857Z,40.09
2019-04-30T06:51:26.094Z,40.22
2019-04-30T06:53:58.674Z,39.89
2019-04-30T06:56:29.731Z,39.65
2019-04-30T06:59:00.783Z,39.92
2019-04-30T07:01:32.836Z,39.94
2019-04-30T07:04:04.885Z,39.94
2019-04-30T07:06:43.939Z,38.63
2019-04-30T07:09:52.138Z,39.24
2019-04-30T07:12:53.455Z,39.61
2019-04-30T07:15:25.880Z,39.22
2019-04-30T07:17:59.127Z,38.93
2019-04-30T07:20:34.056Z,39.58
2019-04-30T07:23:05.839Z,39.51
2019-04-30T07:25:43.459Z,39.51
2019-04-30T07:28:19.506Z,39.37
2019-04-30T07:31:10.209Z,39.55
2019-04-30T07:33:31.335Z,39.33
2019-04-30T07:36:03.930Z,39.12
2019-04-30T07:38:45.660Z,39.42
2019-04-30T07:41:11.371Z,39.17
2019-04-30T07:43:44.326Z,39.17
2019-04-30T07:46:16.883Z,39.52
2019-04-30T07:48:50.136Z,39.10
2019-04-30T07:51:23.401Z,38.92
2019-04-30T07:53:56.403Z,38.61
2019-04-30T07:56:34.902Z,38.44
2019-04-30T07:59:03.034Z,38.90
2019-04-30T08:01:35.867Z,38.90
2019-04-30T08:04:37.398Z,38.30
2019-04-30T08:07:09.926Z,39.22
2019-04-30T08:09:42.542Z,39.27
2019-04-30T08:12:28.212Z,38.47
2019-04-30T08:14:52.331Z,38.47
2019-04-30T08:17:32.451Z,38.80
2019-04-30T08:20:04.965Z,39.08
2019-04-30T08:22:40.850Z,38.82
2019-04-30T08:25:12.062Z,39.14
2019-04-30T08:27:44.397Z,38.61
2019-04-30T08:30:23.828Z,38.52
2019-04-30T08:32:50.798Z,39.20
2019-04-30T08:35:22.910Z,39.20
2019-04-30T08:37:54.858Z,39.34
2019-04-30T08:40:29.602Z,39.18
2019-04-30T08:43:01.768Z,39.14
2019-04-30T08:45:34.858Z,39.23
2019-04-30T08:48:09.073Z,39.19
2019-04-30T08:50:42.308Z,39.28
2019-04-30T08:53:26.760Z,39.21
2019-04-30T08:55:49.239Z,39.25
2019-04-30T08:58:21.892Z,39.05
2019-04-30T09:00:54.110Z,38.79
2019-04-30T09:03:26.705Z,37.67
2019-04-30T09:06:02.287Z,39.07
2019-04-30T09:08:35.352Z,39.00
2019-04-30T09:11:21.838Z,39.12
2019-04-30T09:13:41.752Z,38.81
2019-04-30T09:16:13.585Z,38.94
2019-04-30T09:18:45.870Z,38.61
2019-04-30T09:21:19.432Z,38.61
2019-04-30T09:23:52.826Z,38.75
2019-04-30T09:26:31.021Z,39.05
2019-04-30T09:29:03.901Z,38.02
2019-04-30T09:31:36.006Z,37.85
2019-04-30T09:34:15.307Z,36.82
2019-04-30T09:36:42.853Z,38.39
2019-04-30T09:39:15.068Z,38.79
2019-04-30T09:41:49.440Z,38.93
2019-04-30T09:44:21.234Z,38.89
2019-04-30T09:46:53.876Z,39.01
2019-04-30T09:49:26.319Z,38.88
2019-04-30T09:51:59.370Z,38.75
2019-04-30T09:54:35.453Z,38.99
2019-04-30T09:57:08.761Z,38.97
2019-04-30T09:59:45.406Z,38.80
2019-04-30T10:02:21.580Z,38.80
2019-04-30T10:04:54.130Z,38.86
2019-04-30T10:07:26.872Z,38.86
2019-04-30T10:09:59.387Z,38.92
2019-04-30T10:12:32.723Z,38.86
2019-04-30T10:15:03.798Z,38.85
2019-04-30T10:17:39.488Z,38.75
2019-04-30T10:20:14.959Z,38.77
2019-04-30T10:22:47.056Z,38.63
2019-04-30T10:25:19.871Z,38.69
2019-04-30T10:27:59.795Z,38.87
2019-04-30T10:30:42.799Z,38.09
2019-04-30T10:33:16.167Z,38.79
2019-04-30T10:35:54.302Z,38.97
2019-04-30T10:38:29.366Z,39.00
2019-04-30T10:41:04.981Z,38.75
2019-04-30T10:43:41.749Z,38.85
2019-04-30T10:46:12.923Z,38.93
2019-04-30T10:48:45.100Z,39.00
2019-04-30T10:51:18.958Z,38.34
2019-04-30T10:53:51.405Z,38.91
2019-04-30T10:56:23.905Z,38.75
2019-04-30T10:59:00.401Z,38.35
2019-04-30T11:01:32.872Z,39.03
2019-04-30T11:04:04.860Z,38.34
2019-04-30T11:06:37.356Z,38.70
2019-04-30T11:09:11.912Z,37.18
2019-04-30T11:11:44.202Z,38.94
2019-04-30T11:14:16.853Z,37.23
2019-04-30T11:16:51.197Z,38.72
2019-04-30T11:19:22.472Z,38.72
2019-04-30T11:21:56.110Z,38.93
2019-04-30T11:24:36.559Z,38.90
2019-04-30T11:27:05.236Z,38.70
2019-04-30T11:29:39.202Z,38.84
2019-04-30T11:32:24.492Z,38.85
2019-04-30T11:34:58.359Z,38.84
2019-04-30T11:37:35.760Z,38.77
2019-04-30T11:40:07.280Z,38.73
2019-04-30T11:42:39.332Z,38.57
2019-04-30T11:45:12.799Z,38.59
2019-04-30T11:47:53.262Z,38.59
2019-04-30T11:50:19.343Z,38.56
2019-04-30T11:52:51.849Z,38.38
2019-04-30T11:55:24.450Z,38.65
2019-04-30T11:57:56.913Z,38.72
2019-04-30T12:00:34.597Z,38.18
2019-04-30T12:03:15.278Z,38.46
2019-04-30T12:05:49.029Z,38.46
2019-04-30T12:08:26.785Z,38.63
2019-04-30T12:11:15.374Z,38.71
2019-04-30T12:13:47.883Z,38.48
2019-04-30T12:16:19.893Z,38.57
2019-04-30T12:18:51.981Z,38.63
2019-04-30T12:21:24.365Z,38.56
2019-04-30T12:23:57.319Z,38.64
2019-04-30T12:26:29.902Z,38.24
2019-04-30T12:29:01.903Z,38.08
2019-04-30T12:31:33.856Z,37.34
2019-04-30T12:34:05.869Z,37.73
2019-04-30T12:36:38.819Z,38.33
2019-04-30T12:39:11.000Z,38.53
2019-04-30T12:41:43.381Z,37.34
2019-04-30T12:44:15.815Z,38.45
2019-04-30T12:46:48.658Z,38.04
2019-04-30T12:49:19.704Z,38.47
2019-04-30T12:52:09.385Z,38.36
2019-04-30T12:54:46.895Z,37.97
2019-04-30T12:57:40.018Z,38.35
2019-04-30T13:00:14.833Z,38.36
2019-04-30T13:02:47.182Z,38.41
2019-04-30T13:05:19.865Z,37.94
2019-04-30T13:07:52.464Z,38.34
2019-04-30T13:10:25.971Z,38.25
2019-04-30T13:12:59.390Z,38.37
2019-04-30T13:15:31.825Z,38.29
2019-04-30T13:18:04.898Z,38.24
2019-04-30T13:20:39.052Z,38.32
2019-04-30T13:23:11.880Z,38.38
2019-04-30T13:25:51.333Z,38.36
2019-04-30T13:28:21.502Z,36.23
2019-04-30T13:30:53.954Z,38.12
2019-04-30T13:33:39.218Z,38.14
2019-04-30T13:36:11.271Z,38.22
2019-04-30T13:38:52.204Z,38.09
2019-04-30T13:41:49.287Z,38.12
2019-04-30T13:44:49.266Z,38.12
2019-04-30T13:47:21.818Z,38.01
2019-04-30T13:49:53.815Z,38.06
2019-04-30T13:52:26.324Z,38.29
2019-04-30T13:54:58.885Z,38.18
2019-04-30T13:57:30.918Z,38.05
2019-04-30T14:00:03.842Z,37.35
2019-04-30T14:02:39.639Z,38.12
2019-04-30T14:05:18.950Z,36.52
2019-04-30T14:08:12.704Z,36.52
2019-04-30T14:10:45.916Z,35.01
2019-04-30T14:13:18.066Z,35.44
2019-04-30T14:15:50.334Z,36.69
2019-04-30T14:18:30.585Z,35.59
2019-04-30T14:21:00.824Z,36.12
2019-04-30T14:23:30.894Z,36.12
2019-04-30T14:26:03.059Z,35.81
2019-04-30T14:28:35.088Z,34.78
2019-04-30T14:31:07.479Z,34.33
2019-04-30T14:33:40.175Z,32.88
2019-04-30T14:36:16.527Z,31.69
2019-04-30T14:38:48.979Z,34.25
2019-04-30T14:41:22.528Z,36.42
2019-04-30T14:44:04.913Z,33.91
2019-04-30T14:46:49.691Z,33.90
2019-04-30T14:49:43.620Z,32.54
2019-04-30T14:52:16.063Z,33.77
2019-04-30T14:54:58.646Z,32.87
2019-04-30T14:57:44.020Z,33.77
2019-04-30T15:00:34.894Z,35.28
2019-04-30T15:03:10.534Z,37.08
2019-04-30T15:05:48.851Z,37.19
2019-04-30T15:08:15.778Z,37.11
2019-04-30T15:10:47.946Z,37.11
2019-04-30T15:13:20.854Z,36.56
2019-04-30T15:15:53.320Z,35.44
2019-04-30T15:18:25.812Z,37.31
2019-04-30T15:20:59.450Z,37.15
2019-04-30T15:23:40.534Z,35.75
2019-04-30T15:26:22.230Z,35.75
2019-04-30T15:28:45.702Z,36.94
2019-04-30T15:31:18.434Z,37.03
2019-04-30T15:34:02.794Z,36.60
2019-04-30T15:36:35.872Z,37.35
2019-04-30T15:39:30.629Z,37.18
2019-04-30T15:42:02.089Z,37.33
2019-04-30T15:44:40.256Z,37.17
2019-04-30T15:47:11.764Z,37.31
2019-04-30T15:49:42.713Z,37.31
2019-04-30T15:52:20.515Z,36.14
2019-04-30T15:54:53.947Z,37.15
2019-04-30T15:57:29.402Z,37.15
2019-04-30T16:00:01.316Z,37.16
2019-04-30T16:02:40.530Z,36.36
2019-04-30T16:05:34.113Z,37.25
2019-04-30T16:08:31.084Z,37.15
2019-04-30T16:11:13.506Z,37.19
2019-04-30T16:14:19.669Z,37.06
2019-04-30T16:17:01.262Z,37.35
2019-04-30T16:19:34.096Z,37.35
2019-04-30T16:22:06.852Z,37.28
2019-04-30T16:24:39.085Z,37.00
2019-04-30T16:27:11.367Z,37.06
2019-04-30T16:29:44.101Z,36.89
2019-04-30T16:32:16.430Z,37.34
2019-04-30T16:34:49.821Z,36.20
2019-04-30T16:37:22.494Z,37.03
2019-04-30T16:39:55.062Z,36.94
2019-04-30T16:42:28.998Z,37.22
2019-04-30T16:45:01.461Z,37.14
2019-04-30T16:47:33.997Z,37.04
2019-04-30T16:50:08.973Z,36.87
2019-04-30T16:52:42.043Z,36.73
2019-04-30T16:55:17.440Z,36.97
2019-04-30T16:57:50.709Z,36.97
2019-04-30T17:00:21.955Z,36.96
2019-04-30T17:02:59.563Z,37.05
2019-04-30T17:05:56.081Z,37.07
2019-04-30T17:08:50.613Z,36.99
2019-04-30T17:11:40.560Z,36.82
2019-04-30T17:14:16.091Z,37.20
2019-04-30T17:16:49.375Z,37.20
2019-04-30T17:19:22.094Z,37.05
2019-04-30T17:21:54.464Z,37.09
2019-04-30T17:24:26.920Z,36.79
2019-04-30T17:26:59.345Z,37.28
2019-04-30T17:29:32.351Z,36.90
2019-04-30T17:32:04.891Z,37.12
2019-04-30T17:34:38.830Z,36.99
2019-04-30T17:37:10.270Z,37.12
2019-04-30T17:39:42.837Z,37.36
2019-04-30T17:42:14.868Z,37.33
2019-04-30T17:44:56.326Z,37.06
2019-04-30T17:47:21.329Z,37.14
2019-04-30T17:49:53.872Z,37.33
2019-04-30T17:52:29.687Z,37.27
2019-04-30T17:55:01.987Z,37.44
2019-04-30T17:57:34.757Z,37.54
2019-04-30T18:00:16.883Z,37.40
2019-04-30T18:02:41.914Z,37.33
2019-04-30T18:05:13.930Z,37.53
2019-04-30T18:07:46.317Z,37.10
2019-04-30T18:10:20.821Z,37.33
2019-04-30T18:12:53.398Z,37.00
2019-04-30T18:15:27.733Z,36.56
2019-04-30T18:18:07.769Z,37.44
2019-04-30T18:20:44.326Z,37.67
2019-04-30T18:23:40.058Z,37.78
2019-04-30T18:26:14.336Z,37.49
2019-04-30T18:28:46.866Z,37.76
2019-04-30T18:31:19.324Z,37.77
2019-04-30T18:33:51.835Z,37.61
2019-04-30T18:36:24.843Z,37.69
2019-04-30T18:38:58.930Z,37.21
2019-04-30T18:44:09.515Z,37.72
2019-04-30T18:46:41.296Z,37.70
2019-04-30T18:49:13.868Z,37.70
2019-04-30T18:51:45.880Z,37.94
2019-04-30T18:54:18.396Z,37.64
2019-04-30T18:56:50.744Z,38.06
2019-04-30T18:59:22.812Z,37.93
2019-04-30T19:01:55.364Z,38.13
2019-04-30T19:04:28.791Z,38.12
2019-04-30T19:07:05.768Z,38.20
2019-04-30T19:09:44.558Z,38.27
2019-04-30T19:12:50.766Z,38.33
2019-04-30T19:16:17.630Z,38.33
2019-04-30T19:18:35.822Z,38.20
2019-04-30T19:21:09.102Z,38.50
2019-04-30T19:23:41.850Z,38.44
2019-04-30T19:26:14.921Z,38.56
2019-04-30T19:28:46.861Z,38.63
2019-04-30T19:31:19.990Z,38.65
2019-04-30T19:33:52.598Z,38.55
2019-04-30T19:36:35.162Z,38.64
2019-04-30T19:38:59.752Z,38.64
2019-04-30T19:41:31.863Z,38.76
2019-04-30T19:44:03.863Z,38.71
2019-04-30T19:46:36.320Z,38.81
2019-04-30T19:49:09.811Z,38.83
2019-04-30T19:51:41.841Z,38.62
2019-04-30T19:54:13.866Z,38.65
2019-04-30T19:56:45.887Z,38.54
2019-04-30T19:59:19.340Z,38.64
2019-04-30T20:01:51.863Z,39.15
2019-04-30T20:04:33.108Z,39.22
2019-04-30T20:06:59.150Z,39.03
2019-04-30T20:09:31.895Z,39.03
2019-04-30T20:12:04.837Z,39.39
2019-04-30T20:14:38.967Z,39.35
2019-04-30T20:17:10.748Z,39.42
2019-04-30T20:19:43.903Z,39.52
2019-04-30T20:22:16.487Z,39.52
2019-04-30T20:24:49.170Z,39.61
2019-04-30T20:27:24.844Z,39.54
2019-04-30T20:29:59.087Z,39.31
2019-04-30T20:32:36.096Z,39.30
2019-04-30T20:35:04.879Z,39.47
2019-04-30T20:37:55.507Z,39.47
2019-04-30T20:40:42.684Z,39.58
2019-04-30T20:43:04.895Z,39.62
2019-04-30T20:45:36.904Z,39.63
2019-04-30T20:48:09.423Z,39.39
2019-04-30T20:50:41.873Z,39.63
2019-04-30T20:53:13.912Z,39.67
2019-04-30T20:55:46.326Z,39.71
2019-04-30T20:58:18.841Z,39.84
2019-04-30T21:01:01.292Z,39.91
2019-04-30T21:03:25.843Z,39.87
2019-04-30T21:06:00.351Z,39.77
2019-04-30T21:08:31.274Z,39.43
2019-04-30T21:11:02.757Z,39.73
2019-04-30T21:13:35.074Z,39.80
2019-04-30T21:16:07.286Z,39.69
2019-04-30T21:18:39.859Z,40.00
2019-04-30T21:21:11.872Z,40.08
2019-04-30T21:23:44.139Z,40.01
2019-04-30T21:26:16.386Z,40.09
2019-04-30T21:28:49.400Z,40.14
2019-04-30T21:31:55.882Z,40.30
2019-04-30T21:34:35.531Z,40.30
2019-04-30T21:37:09.376Z,40.25
2019-04-30T21:39:41.911Z,40.25
2019-04-30T21:42:14.331Z,40.36
2019-04-30T21:44:46.880Z,40.31
2019-04-30T21:47:19.000Z,40.39
2019-04-30T21:49:51.378Z,40.50
2019-04-30T21:52:23.884Z,40.54
2019-04-30T21:54:59.514Z,40.40
2019-04-30T21:57:32.303Z,40.43
2019-04-30T22:00:04.864Z,40.47
2019-04-30T22:02:38.353Z,40.64
2019-04-30T22:05:11.281Z,40.33
2019-04-30T22:07:43.798Z,40.33
2019-04-30T22:10:16.692Z,40.17
2019-04-30T22:12:48.993Z,40.73
2019-04-30T22:15:21.711Z,40.73
2019-04-30T22:17:53.289Z,40.75
2019-04-30T22:20:25.863Z,40.55
2019-04-30T22:22:59.331Z,40.40
2019-04-30T22:25:31.864Z,40.53
2019-04-30T22:28:03.877Z,40.72
2019-04-30T22:30:36.344Z,40.72
2019-04-30T22:33:10.832Z,40.73
2019-04-30T22:35:54.458Z,40.81
2019-04-30T22:38:30.420Z,40.69
2019-04-30T22:41:02.910Z,40.53
2019-04-30T22:43:34.875Z,40.85
2019-04-30T22:46:12.638Z,40.85
2019-04-30T22:48:44.950Z,40.56
2019-04-30T22:51:17.116Z,40.56
2019-04-30T22:53:50.099Z,40.57
2019-04-30T22:56:23.770Z,40.70
2019-04-30T22:58:54.954Z,40.59
2019-04-30T23:01:41.474Z,40.71
2019-04-30T23:04:19.355Z,40.52
2019-04-30T23:06:52.332Z,40.71
2019-04-30T23:09:24.867Z,40.62
2019-04-30T23:11:57.563Z,40.58
2019-04-30T23:14:30.552Z,40.79
2019-04-30T23:17:02.887Z,40.79
2019-04-30T23:19:35.334Z,40.48
2019-04-30T23:22:07.854Z,40.58
2019-04-30T23:24:40.886Z,40.39
2019-04-30T23:27:13.335Z,40.59
2019-04-30T23:29:45.892Z,40.49
2019-04-30T23:32:18.860Z,40.54
2019-04-30T23:34:50.863Z,40.69
2019-04-30T23:37:22.831Z,40.80
2019-04-30T23:39:54.902Z,40.62
2019-04-30T23:42:26.921Z,40.81
2019-04-30T23:44:59.094Z,40.80
2019-04-30T23:47:31.333Z,40.57
2019-04-30T23:50:06.875Z,40.80
2019-04-30T23:52:38.833Z,40.75
2019-04-30T23:55:10.852Z,40.90
2019-04-30T23:57:43.329Z,40.84
